This is the latest recevied weather packets stored in our database for station/object N0RRC. If no packets are shown the sender has not sent any weather packets the latest 10 day(s).
| Time | Temp. | Humidity | Pressure | Rain* | Wind** | Luminosity | Snow |
|---|---|---|---|---|---|---|---|
| 1777649218 | 5.56° C | 72% | 1016.2 hPa | 0 mm | - | 129 W/m² | - |
| 1777641417 | 4.44° C | 84% | 1015.7 hPa | 0 mm | - | 442 W/m² | - |
| 1777639616 | 4.44° C | 87% | 1015.7 hPa | 0 mm | - | 265 W/m² | - |
| 1777639016 | 3.89° C | 88% | 1015.7 hPa | 0 mm | - | 220 W/m² | - |
| 1777636016 | 2.78° C | 90% | 1015.2 hPa | 0 mm | - | 114 W/m² | - |
| 1777635416 | 2.22° C | 91% | 1015.2 hPa | 0 mm | - | 88 W/m² | - |
| 1777631216 | 2.22° C | 88% | 1014.6 hPa | 0 mm | - | 0 W/m² | - |
| 1777622815 | 3.33° C | 87% | 1014.8 hPa | 0 mm | - | 0 W/m² | - |
| 1777621615 | 3.89° C | 87% | 1014.8 hPa | 0 mm | - | 0 W/m² | - |
| 1777615615 | 3.33° C | 86% | 1015.1 hPa | 0 mm | - | 0 W/m² | - |
| 1777614415 | 3.33° C | 86% | 1015.2 hPa | 0 mm | - | 0 W/m² | - |
| 1777612615 | 3.33° C | 84% | 1014.9 hPa | 0 mm | - | 0 W/m² | - |
| 1777606616 | 3.89° C | 83% | 1014.8 hPa | 0 mm | - | 0 W/m² | - |
| 1777603616 | 4.44° C | 82% | 1014.8 hPa | 0 mm | - | 0 W/m² | - |
| 1777600616 | 4.44° C | 81% | 1014.6 hPa | 0 mm | - | 0 W/m² | - |
| 1777594016 | 5.56° C | 78% | 1013.5 hPa | 0 mm | - | 56 W/m² | - |
| 1777593417 | 6.11° C | 78% | 1013.4 hPa | 0 mm | - | 58 W/m² | - |
| 1777591015 | 6.11° C | 79% | 1013.5 hPa | 0 mm | - | 61 W/m² | - |
| 1777584417 | 6.67° C | 74% | 1013.9 hPa | 0 mm | - | 197 W/m² | - |
| 1777582618 | 7.22° C | 76% | 1014.2 hPa | 0 mm | - | 237 W/m² | - |
| 1777580217 | 7.78° C | 74% | 1014.5 hPa | 0 mm | - | 234 W/m² | - |
| 1777573017 | 8.89° C | 59% | 1015.1 hPa | 0 mm | - | 254 W/m² | - |
| 1777571816 | 9.44° C | 62% | 1015.4 hPa | 0 mm | - | 532 W/m² | - |
| 1777568239 | 8.89° C | 61% | 1015.9 hPa | 0 mm | - | 534 W/m² | - |
| 1777564016 | 7.78° C | 64% | 1016.3 hPa | 0 mm | - | 425 W/m² | - |
* Rain latest hour (hover to see other rain measurements)
** Current wind speed in m/s (hover to see current wind gust speed)